Time;durP1;ratioP1;P1;durP2;ratioP2;P2;SDS_P1;SDS_P2;PMS_P1;PMS_P2;Temp;Humidity;BMP_temperature;BMP_pressure;BME280_temperature;BME280_humidity;BME280_pressure;Samples;Min_cycle;Max_cycle;Signal;HPM_P1;HPM_P2
2023/01/26 00:00:42;;;;;;;27.30;13.00;;;1.50;99.90;;;;;;5075273;28;20229;-76
2023/01/26 00:03:08;;;;;;;25.73;12.00;;;1.50;99.90;;;;;;5076084;28;20643;-76
2023/01/26 00:05:36;;;;;;;20.90;11.53;;;1.50;99.90;;;;;;5054657;28;20199;-72
2023/01/26 00:08:02;;;;;;;22.47;11.80;;;1.50;99.90;;;;;;5075633;28;20241;-77
2023/01/26 00:10:27;;;;;;;21.10;12.03;;;1.60;99.90;;;;;;5058851;28;20254;-72
2023/01/26 00:12:53;;;;;;;24.57;12.90;;;1.60;99.90;;;;;;5056743;28;20206;-73
2023/01/26 00:15:19;;;;;;;24.40;12.17;;;1.60;99.90;;;;;;5078149;28;20720;-72
2023/01/26 00:17:44;;;;;;;26.27;12.07;;;1.70;99.90;;;;;;5060061;28;20179;-74
2023/01/26 00:20:10;;;;;;;28.20;13.00;;;1.60;99.90;;;;;;5054894;28;20214;-74
2023/01/26 00:22:36;;;;;;;25.97;12.77;;;1.70;99.90;;;;;;5079492;28;20207;-75
2023/01/26 00:25:01;;;;;;;23.80;12.30;;;1.60;99.90;;;;;;5058156;28;20225;-74
2023/01/26 00:27:27;;;;;;;24.93;11.53;;;1.60;99.90;;;;;;5072173;28;20215;-74
2023/01/26 00:29:53;;;;;;;23.00;11.93;;;1.60;99.90;;;;;;5069506;28;20269;-75
2023/01/26 00:32:18;;;;;;;30.90;12.73;;;1.60;99.90;;;;;;5056543;28;20208;-75
2023/01/26 00:34:44;;;;;;;28.63;12.63;;;1.50;99.90;;;;;;5077672;28;20211;-75
2023/01/26 00:37:10;;;;;;;28.57;13.23;;;1.50;99.90;;;;;;5076636;28;20577;-75
2023/01/26 00:39:35;;;;;;;29.43;13.33;;;1.50;99.90;;;;;;5071141;28;21062;-74
2023/01/26 00:42:10;;;;;;;24.83;12.33;;;1.40;99.90;;;;;;5077807;28;20185;-74
2023/01/26 00:44:40;;;;;;;27.30;12.43;;;1.50;99.90;;;;;;5058793;28;20672;-74
2023/01/26 00:47:07;;;;;;;27.10;13.00;;;1.50;99.90;;;;;;5050591;28;20670;-75
2023/01/26 00:49:33;;;;;;;25.53;13.10;;;1.50;99.90;;;;;;5071785;28;20299;-74
2023/01/26 00:52:00;;;;;;;27.50;13.33;;;1.50;99.90;;;;;;5074266;28;20210;-74
2023/01/26 00:54:27;;;;;;;24.60;13.60;;;1.60;99.90;;;;;;5075062;28;20711;-73
2023/01/26 00:56:52;;;;;;;28.13;13.17;;;1.60;99.90;;;;;;5057098;28;20205;-74
2023/01/26 00:59:18;;;;;;;23.67;11.47;;;1.50;99.90;;;;;;5073635;28;20203;-74
2023/01/26 01:01:44;;;;;;;25.10;12.63;;;1.50;99.90;;;;;;5076630;28;20221;-74
2023/01/26 01:04:09;;;;;;;29.10;13.37;;;1.50;99.90;;;;;;5075768;28;20217;-74
2023/01/26 01:06:35;;;;;;;25.67;12.47;;;1.50;99.90;;;;;;5049858;28;20214;-74
2023/01/26 01:09:01;;;;;;;28.73;12.90;;;1.40;99.90;;;;;;5059004;28;20186;-76
2023/01/26 01:11:26;;;;;;;27.97;13.70;;;1.50;99.90;;;;;;5057110;28;20328;-73
2023/01/26 01:13:52;;;;;;;26.57;13.80;;;1.50;99.90;;;;;;5074528;28;20206;-73
2023/01/26 01:16:18;;;;;;;26.20;13.07;;;1.50;99.90;;;;;;5058741;28;20696;-75
2023/01/26 01:18:44;;;;;;;25.57;13.67;;;1.50;99.90;;;;;;5056853;28;20229;-74
2023/01/26 01:21:14;;;;;;;24.07;12.57;;;1.50;99.90;;;;;;5073525;28;20299;-74
2023/01/26 01:23:40;;;;;;;26.47;12.43;;;1.50;99.90;;;;;;5077056;28;20262;-77
2023/01/26 01:26:07;;;;;;;27.77;14.03;;;1.50;99.90;;;;;;5054330;28;20211;-73
2023/01/26 01:28:33;;;;;;;21.77;11.77;;;1.50;99.90;;;;;;5056366;28;20763;-72
2023/01/26 01:31:02;;;;;;;26.67;12.13;;;1.60;99.90;;;;;;5075665;28;20210;-73
2023/01/26 01:33:27;;;;;;;24.60;12.20;;;1.50;99.90;;;;;;5071658;28;20211;-74
2023/01/26 01:36:04;;;;;;;27.40;13.50;;;1.60;99.90;;;;;;5060995;28;20289;-75
2023/01/26 01:38:30;;;;;;;24.50;13.03;;;1.50;99.90;;;;;;5074064;28;20616;-73
2023/01/26 01:40:56;;;;;;;27.60;13.70;;;1.50;99.90;;;;;;5056048;28;20248;-73
2023/01/26 01:43:22;;;;;;;27.00;13.03;;;1.50;99.90;;;;;;5053580;28;20269;-73
2023/01/26 01:45:49;;;;;;;28.03;13.83;;;1.50;99.90;;;;;;5073402;28;20215;-71
2023/01/26 01:48:23;;;;;;;26.70;13.93;;;1.50;99.90;;;;;;5059393;28;20229;-72
2023/01/26 01:50:51;;;;;;;25.13;12.90;;;1.60;99.90;;;;;;5076419;28;20186;-73
2023/01/26 01:53:26;;;;;;;30.27;13.60;;;1.60;99.90;;;;;;5072260;28;20209;-72
2023/01/26 01:55:58;;;;;;;27.50;14.43;;;1.60;99.90;;;;;;5060440;28;20213;-76
2023/01/26 01:58:26;;;;;;;30.47;15.00;;;1.60;99.90;;;;;;5055272;28;20207;-75
2023/01/26 02:00:52;;;;;;;28.43;13.93;;;1.60;99.90;;;;;;5073082;28;20225;-72
2023/01/26 02:03:18;;;;;;;30.37;14.07;;;1.60;99.90;;;;;;5075946;28;20228;-72
2023/01/26 02:06:05;;;;;;;25.23;14.23;;;1.70;99.90;;;;;;5073384;28;20230;-73
2023/01/26 02:08:44;;;;;;;28.47;13.70;;;1.60;99.90;;;;;;5073615;28;20211;-73
2023/01/26 02:11:32;;;;;;;28.73;14.00;;;1.60;99.90;;;;;;5076858;28;20650;-74
2023/01/26 02:14:01;;;;;;;30.27;14.33;;;1.70;99.90;;;;;;5074269;28;20210;-73
2023/01/26 02:16:27;;;;;;;27.33;14.70;;;1.60;99.90;;;;;;5053867;28;20624;-75
2023/01/26 02:18:53;;;;;;;31.70;14.70;;;1.60;99.90;;;;;;5073631;28;20240;-74
2023/01/26 02:21:20;;;;;;;31.83;14.80;;;1.60;99.90;;;;;;5072351;28;20317;-77
2023/01/26 02:23:59;;;;;;;35.80;14.47;;;1.70;99.90;;;;;;5061486;28;20171;-74
2023/01/26 02:26:36;;;;;;;37.30;15.37;;;1.70;99.90;;;;;;5071500;28;20218;-73
2023/01/26 02:29:05;;;;;;;28.23;14.20;;;1.70;99.90;;;;;;5057794;28;20223;-75
2023/01/26 02:31:31;;;;;;;29.87;13.40;;;1.70;99.90;;;;;;5055574;28;20244;-74
2023/01/26 02:33:56;;;;;;;33.50;15.27;;;1.60;99.90;;;;;;5073838;28;20244;-74
2023/01/26 02:36:25;;;;;;;34.77;16.53;;;1.50;99.90;;;;;;5079370;28;20226;-77
2023/01/26 02:39:00;;;;;;;32.80;15.40;;;1.50;99.90;;;;;;5055227;28;20190;-74
2023/01/26 02:44:12;;;;;;;27.67;13.47;;;1.40;99.90;;;;;;5070517;28;20214;-76
2023/01/26 02:46:38;;;;;;;36.53;16.13;;;1.50;99.90;;;;;;5052053;28;20218;-75
2023/01/26 02:51:48;;;;;;;33.33;15.10;;;1.50;99.90;;;;;;5077628;28;20273;-76
2023/01/26 02:55:21;;;;;;;35.20;14.53;;;1.50;99.90;;;;;;5076591;28;20214;-74
2023/01/26 02:57:00;;;;;;;31.47;14.10;;;1.40;99.90;;;;;;5079732;28;20224;-75
2023/01/26 02:59:25;;;;;;;30.03;14.50;;;1.40;99.90;;;;;;5058576;28;20206;-74
2023/01/26 03:02:11;;;;;;;30.00;13.70;;;1.40;99.90;;;;;;5061257;28;20202;-76
2023/01/26 03:04:37;;;;;;;29.03;13.33;;;1.40;99.90;;;;;;5068207;28;20587;-74
2023/01/26 03:07:03;;;;;;;29.90;14.80;;;1.40;99.90;;;;;;5073201;28;20214;-75
2023/01/26 03:09:28;;;;;;;26.70;13.57;;;1.50;99.90;;;;;;5055523;28;20245;-76
2023/01/26 03:11:54;;;;;;;29.53;12.27;;;1.50;99.90;;;;;;5073063;28;20222;-75
2023/01/26 03:14:20;;;;;;;26.63;12.90;;;1.40;99.90;;;;;;5073537;28;20179;-76
2023/01/26 03:16:45;;;;;;;26.73;13.97;;;1.40;99.90;;;;;;5072555;28;20297;-74
2023/01/26 03:27:27;;;;;;;26.77;12.73;;;1.40;99.90;;;;;;5071703;28;20634;-76
2023/01/26 03:29:56;;;;;;;25.33;11.90;;;1.40;99.90;;;;;;5072945;28;20649;-76
2023/01/26 03:32:23;;;;;;;21.77;10.87;;;1.40;99.90;;;;;;5073330;28;20190;-75
2023/01/26 03:34:49;;;;;;;25.87;11.93;;;1.40;99.90;;;;;;5072770;28;20218;-76
2023/01/26 03:37:14;;;;;;;19.67;10.60;;;1.40;99.90;;;;;;5072749;28;20588;-74
2023/01/26 03:56:23;;;;;;;29.70;13.53;;;1.40;99.90;;;;;;5074634;28;20217;-75
2023/01/26 03:58:54;;;;;;;19.30;10.23;;;1.50;99.90;;;;;;5073145;28;20206;-75
2023/01/26 04:01:26;;;;;;;22.90;10.53;;;1.50;99.90;;;;;;5071943;28;20207;-75
2023/01/26 04:09:25;;;;;;;19.10;11.03;;;1.40;99.90;;;;;;5071346;28;20271;-75
2023/01/26 04:11:50;;;;;;;15.40;8.93;;;1.40;99.90;;;;;;5072066;28;20675;-75
2023/01/26 04:22:42;;;;;;;21.87;10.87;;;1.50;99.90;;;;;;5072014;28;20259;-75
2023/01/26 04:25:09;;;;;;;20.60;9.93;;;1.50;99.90;;;;;;5075456;28;20593;-75
2023/01/26 04:27:35;;;;;;;20.23;10.23;;;1.50;99.90;;;;;;5057372;28;20217;-75
2023/01/26 04:30:04;;;;;;;22.40;10.90;;;1.50;99.90;;;;;;5071620;28;20179;-76
2023/01/26 04:32:30;;;;;;;24.23;11.30;;;1.50;99.90;;;;;;5072471;28;20203;-75
2023/01/26 04:34:55;;;;;;;18.87;10.40;;;1.50;99.90;;;;;;5071649;28;20300;-75
2023/01/26 04:37:21;;;;;;;20.83;11.63;;;1.40;99.90;;;;;;5073884;28;20580;-76
2023/01/26 04:39:47;;;;;;;24.97;12.17;;;1.50;99.90;;;;;;5071242;28;20244;-72
2023/01/26 04:42:13;;;;;;;21.57;11.40;;;1.60;99.90;;;;;;5071578;28;20206;-75
2023/01/26 04:44:38;;;;;;;25.80;13.53;;;1.50;99.90;;;;;;5054012;28;20210;-73
2023/01/26 04:47:04;;;;;;;25.00;13.20;;;1.60;99.90;;;;;;5071116;28;20285;-75
2023/01/26 04:49:30;;;;;;;26.37;12.57;;;1.50;99.90;;;;;;5071246;28;20201;-76
2023/01/26 04:51:55;;;;;;;25.93;13.40;;;1.50;99.90;;;;;;5071162;28;20626;-72
2023/01/26 04:54:21;;;;;;;24.70;12.80;;;1.50;99.90;;;;;;5071472;28;20306;-75
2023/01/26 04:56:47;;;;;;;25.00;11.97;;;1.50;99.90;;;;;;5071157;28;20723;-75
2023/01/26 04:59:13;;;;;;;23.63;12.50;;;1.60;99.90;;;;;;5071159;28;20230;-75
2023/01/26 05:01:39;;;;;;;29.38;16.52;;;1.50;99.90;;;;;;5070186;28;20413;-75
2023/01/26 05:04:05;;;;;;;21.67;12.80;;;1.50;99.90;;;;;;5069059;28;20244;-73
2023/01/26 05:06:31;;;;;;;25.80;12.93;;;1.50;99.90;;;;;;5070650;28;20704;-75
2023/01/26 05:08:57;;;;;;;28.27;13.57;;;1.50;99.90;;;;;;5070870;28;20188;-75
2023/01/26 05:11:23;;;;;;;27.53;13.50;;;1.50;99.90;;;;;;5071140;28;20178;-76
2023/01/26 05:13:49;;;;;;;28.20;12.60;;;1.50;99.90;;;;;;5070147;28;20206;-75
2023/01/26 05:16:15;;;;;;;26.03;12.13;;;1.60;99.90;;;;;;5052451;28;20207;-75
2023/01/26 05:18:41;;;;;;;26.87;11.70;;;1.60;99.90;;;;;;5052948;28;20217;-74
2023/01/26 05:21:08;;;;;;;23.83;11.43;;;1.50;99.90;;;;;;5069633;28;20194;-78
2023/01/26 05:23:33;;;;;;;25.77;10.83;;;1.50;99.90;;;;;;5074985;28;20167;-76
2023/01/26 05:25:59;;;;;;;25.87;11.30;;;1.50;99.90;;;;;;5055311;28;20214;-76
2023/01/26 05:28:25;;;;;;;28.47;11.43;;;1.40;99.90;;;;;;5077770;28;20203;-75
2023/01/26 05:30:50;;;;;;;26.00;12.37;;;1.50;99.90;;;;;;5074070;28;20207;-74
2023/01/26 05:33:20;;;;;;;22.67;10.33;;;1.50;99.90;;;;;;5072174;28;20586;-76
2023/01/26 05:35:50;;;;;;;24.07;11.03;;;1.40;99.90;;;;;;5059453;28;20190;-76
2023/01/26 05:38:16;;;;;;;23.17;11.10;;;1.40;99.90;;;;;;5073808;28;20207;-75
2023/01/26 05:40:42;;;;;;;23.57;11.00;;;1.40;99.90;;;;;;5070933;28;20647;-75
2023/01/26 05:43:08;;;;;;;21.03;10.23;;;1.40;99.90;;;;;;5075903;28;20203;-75
2023/01/26 05:45:34;;;;;;;21.23;10.27;;;1.50;99.90;;;;;;5054641;28;20258;-72
2023/01/26 05:48:00;;;;;;;21.03;9.73;;;1.50;99.90;;;;;;5054697;28;20624;-76
2023/01/26 05:50:26;;;;;;;21.47;10.10;;;1.40;99.90;;;;;;5074246;28;20174;-76
2023/01/26 05:52:51;;;;;;;20.57;9.33;;;1.40;99.90;;;;;;5072918;28;20219;-76
2023/01/26 05:55:17;;;;;;;18.60;8.57;;;1.30;99.90;;;;;;5076353;28;20313;-77
2023/01/26 05:57:43;;;;;;;17.93;8.27;;;1.40;99.90;;;;;;5074413;28;20203;-74
2023/01/26 06:00:11;;;;;;;18.67;7.93;;;1.30;99.90;;;;;;5074869;28;20278;-76
2023/01/26 06:02:36;;;;;;;15.77;7.93;;;1.40;99.90;;;;;;5077071;28;20182;-76
2023/01/26 06:05:02;;;;;;;18.67;9.10;;;1.40;99.90;;;;;;5056442;28;20206;-77
2023/01/26 06:07:28;;;;;;;18.97;8.40;;;1.40;99.90;;;;;;5056305;28;20217;-77
2023/01/26 06:09:53;;;;;;;14.93;8.30;;;1.40;99.90;;;;;;5062338;28;20242;-76
2023/01/26 06:12:20;;;;;;;18.37;8.50;;;1.40;99.90;;;;;;5072954;28;20214;-72
2023/01/26 06:14:46;;;;;;;17.40;8.37;;;1.30;99.90;;;;;;5048627;28;20275;-74
2023/01/26 06:17:14;;;;;;;17.13;8.40;;;1.40;99.90;;;;;;5071046;28;20243;-76
2023/01/26 06:19:40;;;;;;;19.60;9.50;;;1.40;99.90;;;;;;5072639;28;20228;-76
2023/01/26 06:22:12;;;;;;;17.30;8.53;;;1.40;99.90;;;;;;5080397;28;20211;-76
2023/01/26 06:24:38;;;;;;;17.43;8.93;;;1.40;99.90;;;;;;5070207;28;20206;-75
2023/01/26 06:27:07;;;;;;;20.83;8.93;;;1.40;99.90;;;;;;5073174;28;20171;-72
2023/01/26 06:29:33;;;;;;;21.80;9.10;;;1.40;99.90;;;;;;5056742;28;20301;-76
2023/01/26 06:31:59;;;;;;;19.30;9.63;;;1.40;99.90;;;;;;5052815;28;20291;-75
2023/01/26 06:34:25;;;;;;;16.83;9.07;;;1.40;99.90;;;;;;5055396;28;20218;-75
2023/01/26 06:36:50;;;;;;;21.50;9.40;;;1.30;99.90;;;;;;5054329;28;20215;-75
2023/01/26 06:39:16;;;;;;;25.60;11.00;;;1.20;99.90;;;;;;5072719;28;20211;-75
2023/01/26 06:41:45;;;;;;;22.73;9.87;;;1.20;99.90;;;;;;5059080;28;20182;-75
2023/01/26 06:44:11;;;;;;;24.57;10.73;;;1.20;99.90;;;;;;5056178;28;20298;-74
2023/01/26 06:46:36;;;;;;;22.67;9.83;;;1.20;99.90;;;;;;5070398;28;20297;-75
2023/01/26 06:49:03;;;;;;;25.03;10.33;;;1.20;99.90;;;;;;5076323;28;20276;-74
2023/01/26 06:51:41;;;;;;;19.53;9.07;;;1.20;99.90;;;;;;5054305;28;20252;-75
2023/01/26 06:54:11;;;;;;;23.00;9.93;;;1.10;99.90;;;;;;5070728;28;20650;-74
2023/01/26 06:56:38;;;;;;;21.80;10.10;;;1.10;99.90;;;;;;5075869;28;20214;-75
2023/01/26 06:59:04;;;;;;;20.77;10.93;;;1.20;99.90;;;;;;5074942;28;20222;-75
2023/01/26 07:01:34;;;;;;;20.07;9.30;;;1.20;99.90;;;;;;5074158;28;20225;-75
2023/01/26 07:04:00;;;;;;;20.97;8.73;;;1.30;99.90;;;;;;5074733;28;20250;-75
2023/01/26 07:06:25;;;;;;;17.90;9.30;;;1.20;99.90;;;;;;5064040;28;20261;-75
2023/01/26 07:08:51;;;;;;;20.70;9.33;;;1.20;99.90;;;;;;5072718;28;20183;-73
2023/01/26 07:11:18;;;;;;;20.20;8.80;;;1.30;99.90;;;;;;5078313;28;20741;-74
2023/01/26 07:13:44;;;;;;;17.70;8.73;;;1.30;99.90;;;;;;5071348;28;20207;-74
2023/01/26 07:16:12;;;;;;;17.80;8.27;;;1.20;99.90;;;;;;5077387;28;20222;-74
2023/01/26 07:18:38;;;;;;;18.00;9.10;;;1.20;99.90;;;;;;5057741;28;20245;-74
2023/01/26 07:21:12;;;;;;;16.33;8.43;;;1.20;99.90;;;;;;5075079;28;20553;-75
2023/01/26 07:23:38;;;;;;;19.10;8.77;;;1.10;99.90;;;;;;5070575;28;20542;-74
2023/01/26 07:26:04;;;;;;;20.77;9.13;;;1.10;99.90;;;;;;5071074;28;20217;-71
2023/01/26 07:28:29;;;;;;;19.53;8.20;;;1.20;99.90;;;;;;5054627;28;20595;-74
2023/01/26 07:31:03;;;;;;;15.93;8.77;;;1.20;99.90;;;;;;5073523;28;20207;-71
2023/01/26 07:33:31;;;;;;;17.40;8.57;;;1.20;99.90;;;;;;5061533;28;20209;-74
2023/01/26 07:35:57;;;;;;;23.10;9.57;;;1.20;99.90;;;;;;5073216;28;20289;-73
2023/01/26 07:38:23;;;;;;;17.87;8.80;;;1.20;99.90;;;;;;5076299;28;20232;-75
2023/01/26 07:40:49;;;;;;;15.70;7.77;;;1.20;99.90;;;;;;5073096;28;20215;-75
2023/01/26 07:43:15;;;;;;;17.47;8.27;;;1.20;99.90;;;;;;5080523;28;20209;-75
2023/01/26 07:45:51;;;;;;;14.90;7.60;;;1.20;99.90;;;;;;5056470;28;20593;-74
2023/01/26 07:48:22;;;;;;;15.60;7.90;;;1.20;99.90;;;;;;5079588;28;20236;-76
2023/01/26 07:50:48;;;;;;;19.20;7.77;;;1.20;99.90;;;;;;5077634;28;20189;-73
2023/01/26 07:53:15;;;;;;;16.17;8.13;;;1.20;99.90;;;;;;5074597;28;20242;-75
2023/01/26 07:55:44;;;;;;;15.50;7.27;;;1.30;99.90;;;;;;5057584;28;20207;-75
2023/01/26 07:58:10;;;;;;;16.83;8.50;;;1.30;99.90;;;;;;5059120;28;20839;-73
2023/01/26 08:00:36;;;;;;;19.07;9.00;;;1.20;99.90;;;;;;5056711;28;20268;-74
2023/01/26 08:03:03;;;;;;;13.63;7.83;;;1.30;99.90;;;;;;5079211;28;20272;-75
2023/01/26 08:05:29;;;;;;;14.50;7.97;;;1.20;99.90;;;;;;5072290;28;20203;-75
2023/01/26 08:08:01;;;;;;;16.20;8.30;;;1.20;99.90;;;;;;5058157;28;20215;-71
2023/01/26 08:10:30;;;;;;;17.97;8.97;;;1.10;99.90;;;;;;5076154;28;20221;-75
2023/01/26 08:12:59;;;;;;;18.27;8.97;;;1.00;99.90;;;;;;5073445;28;20218;-72
2023/01/26 08:15:26;;;;;;;18.20;8.73;;;1.00;99.90;;;;;;5046076;28;20264;-75
2023/01/26 08:17:52;;;;;;;16.27;8.93;;;1.00;99.90;;;;;;5053239;28;20235;-75
2023/01/26 08:20:18;;;;;;;14.77;8.40;;;1.00;99.90;;;;;;5055347;28;20709;-72
2023/01/26 08:22:43;;;;;;;16.53;8.77;;;1.00;99.90;;;;;;5054267;28;20206;-74
2023/01/26 08:25:09;;;;;;;12.53;7.53;;;1.00;99.90;;;;;;5053812;28;20217;-74
2023/01/26 08:27:35;;;;;;;15.70;8.27;;;0.90;99.90;;;;;;5050165;28;20211;-74
2023/01/26 08:30:01;;;;;;;15.50;7.80;;;0.90;99.90;;;;;;5054997;28;20213;-74
2023/01/26 08:32:28;;;;;;;17.63;9.30;;;0.80;99.90;;;;;;5051539;28;20214;-73
2023/01/26 08:34:54;;;;;;;13.73;8.17;;;0.80;99.90;;;;;;5047879;28;20310;-74
2023/01/26 08:37:20;;;;;;;15.13;9.00;;;0.90;99.90;;;;;;5037636;28;20306;-74
2023/01/26 08:39:45;;;;;;;16.63;9.07;;;1.00;99.90;;;;;;5030899;28;20226;-74
2023/01/26 08:42:11;;;;;;;14.67;8.33;;;1.00;99.90;;;;;;5056888;28;20212;-74
2023/01/26 08:44:36;;;;;;;15.83;7.87;;;1.00;99.90;;;;;;5036401;28;20199;-73
2023/01/26 08:47:02;;;;;;;16.33;8.03;;;1.00;99.90;;;;;;5035975;28;20223;-74
2023/01/26 08:49:28;;;;;;;18.50;8.53;;;1.10;99.90;;;;;;5055047;28;20224;-74
2023/01/26 08:51:53;;;;;;;14.63;7.57;;;1.20;99.90;;;;;;5052948;28;20214;-74
2023/01/26 08:54:19;;;;;;;17.57;8.13;;;1.00;99.90;;;;;;5029342;28;20207;-74
2023/01/26 08:56:44;;;;;;;13.70;7.90;;;1.10;99.90;;;;;;5053118;28;21415;-74
2023/01/26 08:59:10;;;;;;;19.03;9.20;;;1.10;99.90;;;;;;5039244;28;20296;-74
2023/01/26 09:01:36;;;;;;;13.03;7.83;;;1.10;99.90;;;;;;5046264;28;20284;-75
2023/01/26 09:04:02;;;;;;;14.97;7.93;;;1.10;99.90;;;;;;5050866;28;20216;-75
2023/01/26 09:06:29;;;;;;;18.50;8.83;;;1.10;99.90;;;;;;5050996;28;20595;-74
2023/01/26 09:08:54;;;;;;;13.03;8.13;;;1.10;99.90;;;;;;5048595;28;20657;-73
2023/01/26 09:11:21;;;;;;;14.20;7.83;;;1.10;99.90;;;;;;5029995;28;20198;-74
2023/01/26 09:13:55;;;;;;;15.40;8.70;;;1.20;99.90;;;;;;5050299;28;20481;-72
2023/01/26 09:16:21;;;;;;;15.07;8.40;;;1.10;99.90;;;;;;5034810;28;20218;-74
2023/01/26 09:18:51;;;;;;;14.10;7.83;;;1.20;99.90;;;;;;5051834;28;20235;-72
2023/01/26 09:21:17;;;;;;;16.93;8.73;;;1.20;99.90;;;;;;5050586;28;20314;-74
2023/01/26 09:23:43;;;;;;;15.43;8.63;;;1.10;99.90;;;;;;5050993;28;20274;-74
2023/01/26 09:26:09;;;;;;;13.57;8.00;;;1.10;99.90;;;;;;5051255;28;20221;-74
2023/01/26 09:28:34;;;;;;;15.03;7.83;;;1.10;99.90;;;;;;5051497;28;20764;-75
2023/01/26 09:31:09;;;;;;;13.63;7.00;;;1.10;99.90;;;;;;5031254;28;20219;-74
2023/01/26 09:33:35;;;;;;;13.67;7.77;;;1.10;99.90;;;;;;5047467;28;20313;-74
2023/01/26 09:36:09;;;;;;;14.20;8.80;;;1.10;99.90;;;;;;5052093;28;20235;-74
2023/01/26 09:38:35;;;;;;;17.07;8.47;;;1.20;99.90;;;;;;5046986;28;20595;-74
2023/01/26 09:41:17;;;;;;;16.50;7.87;;;1.10;99.90;;;;;;5046776;28;20223;-75
2023/01/26 09:43:47;;;;;;;18.73;8.23;;;1.10;99.90;;;;;;5046209;28;20211;-75
2023/01/26 09:46:31;;;;;;;14.17;8.33;;;1.10;99.90;;;;;;5049687;28;20636;-72
2023/01/26 09:49:32;;;;;;;16.03;8.87;;;1.00;99.90;;;;;;5037850;28;20290;-74
2023/01/26 09:52:18;;;;;;;14.80;8.43;;;1.10;99.90;;;;;;5022641;28;20215;-75
2023/01/26 09:54:51;;;;;;;15.37;8.97;;;1.20;99.90;;;;;;5046717;28;20222;-75
2023/01/26 09:57:36;;;;;;;14.43;7.37;;;1.10;99.90;;;;;;5046073;28;20359;-74
2023/01/26 10:00:10;;;;;;;16.03;8.17;;;1.10;99.90;;;;;;5050458;28;20207;-74
2023/01/26 10:03:07;;;;;;;16.73;9.70;;;1.10;99.90;;;;;;5046000;28;20286;-75
2023/01/26 10:05:46;;;;;;;18.53;8.80;;;1.10;99.90;;;;;;5041276;28;20314;-75
2023/01/26 10:08:15;;;;;;;18.37;9.17;;;1.00;99.90;;;;;;5048312;28;20269;-74
2023/01/26 10:10:46;;;;;;;15.47;9.40;;;1.10;99.90;;;;;;5030833;28;20220;-74
2023/01/26 10:13:16;;;;;;;19.57;9.63;;;1.00;99.90;;;;;;5025306;28;20303;-73
2023/01/26 10:15:44;;;;;;;15.07;9.30;;;1.10;99.90;;;;;;5034398;28;20226;-75
2023/01/26 10:18:18;;;;;;;15.90;9.50;;;1.10;99.90;;;;;;5068432;28;20224;-74
2023/01/26 10:20:51;;;;;;;16.10;9.10;;;1.10;99.90;;;;;;5069365;28;20221;-74
2023/01/26 10:23:27;;;;;;;15.57;8.93;;;1.10;99.90;;;;;;5072113;28;20268;-75
2023/01/26 10:25:55;;;;;;;15.10;8.37;;;1.10;99.90;;;;;;5048702;28;20236;-73
2023/01/26 10:28:28;;;;;;;13.63;8.67;;;1.00;99.90;;;;;;5067739;28;20246;-75
2023/01/26 10:30:53;;;;;;;17.40;9.40;;;1.00;99.90;;;;;;5067358;28;20708;-73
2023/01/26 10:33:35;;;;;;;17.70;9.50;;;1.10;99.90;;;;;;5068378;28;20248;-73
2023/01/26 10:36:03;;;;;;;16.17;8.60;;;1.10;99.90;;;;;;5046796;28;20202;-74
2023/01/26 10:38:32;;;;;;;16.77;8.57;;;1.10;99.90;;;;;;5070464;28;20171;-73
2023/01/26 10:41:02;;;;;;;15.63;8.43;;;1.10;99.90;;;;;;5061897;28;20223;-74
2023/01/26 10:43:31;;;;;;;16.17;8.50;;;1.10;99.90;;;;;;5048535;28;20203;-71
2023/01/26 10:45:57;;;;;;;13.27;7.97;;;1.20;99.90;;;;;;5052211;28;20279;-72
2023/01/26 10:48:25;;;;;;;14.30;8.27;;;1.20;99.90;;;;;;5064541;28;20215;-72
2023/01/26 10:50:52;;;;;;;15.83;8.40;;;1.20;99.90;;;;;;5054819;28;20175;-73
2023/01/26 10:53:22;;;;;;;13.63;7.70;;;1.20;99.90;;;;;;5072739;28;20567;-72
2023/01/26 10:56:05;;;;;;;15.37;8.27;;;1.10;99.90;;;;;;5072607;28;20222;-73
2023/01/26 10:58:53;;;;;;;14.73;8.13;;;1.20;99.90;;;;;;5051052;28;20214;-72
2023/01/26 11:01:26;;;;;;;15.57;7.67;;;1.30;99.90;;;;;;5067050;28;20233;-72
2023/01/26 11:04:13;;;;;;;14.83;8.13;;;1.30;99.90;;;;;;5049759;28;20207;-72
2023/01/26 11:06:39;;;;;;;14.83;8.47;;;1.20;99.90;;;;;;5067741;28;20211;-73
2023/01/26 11:09:18;;;;;;;17.50;8.90;;;1.20;99.90;;;;;;5068886;28;20213;-72
2023/01/26 11:12:01;;;;;;;15.80;8.07;;;1.20;99.90;;;;;;5074204;28;20198;-73
2023/01/26 11:14:28;;;;;;;18.13;9.40;;;1.10;99.90;;;;;;5074279;28;20311;-73
2023/01/26 11:17:24;;;;;;;17.87;9.60;;;1.10;99.90;;;;;;5070818;28;20238;-73
2023/01/26 11:20:27;;;;;;;16.07;8.30;;;1.10;99.90;;;;;;5070313;28;20582;-71
2023/01/26 11:23:08;;;;;;;14.20;8.27;;;1.20;99.90;;;;;;5072046;28;20223;-72
2023/01/26 11:25:44;;;;;;;15.10;7.97;;;1.20;99.90;;;;;;5076488;28;20752;-73
2023/01/26 11:28:52;;;;;;;13.27;7.70;;;1.20;99.90;;;;;;5066140;28;20207;-72
2023/01/26 11:31:29;;;;;;;16.70;8.70;;;1.30;99.90;;;;;;5067296;28;20226;-72
2023/01/26 11:33:54;;;;;;;14.83;8.13;;;1.30;99.90;;;;;;5073666;28;20213;-72
2023/01/26 11:36:23;;;;;;;13.27;7.40;;;1.30;99.90;;;;;;5077105;28;20219;-73
2023/01/26 11:39:18;;;;;;;12.93;6.97;;;1.40;99.90;;;;;;5074247;28;20546;-72
2023/01/26 11:42:13;;;;;;;10.43;7.30;;;1.40;99.90;;;;;;5074362;28;20190;-73
2023/01/26 11:44:51;;;;;;;13.63;7.83;;;1.40;99.90;;;;;;5073190;28;20208;-73
2023/01/26 11:47:54;;;;;;;12.07;7.80;;;1.40;99.90;;;;;;5074255;28;20221;-71
2023/01/26 11:50:39;;;;;;;17.07;8.17;;;1.40;99.90;;;;;;5080609;28;20219;-74
2023/01/26 11:53:37;;;;;;;14.73;8.30;;;1.40;99.90;;;;;;5073563;28;20218;-73
2023/01/26 11:56:21;;;;;;;13.57;8.33;;;1.40;99.90;;;;;;5071690;28;20215;-74
2023/01/26 11:59:12;;;;;;;18.73;10.73;;;1.40;99.90;;;;;;5051815;28;20233;-73
2023/01/26 12:02:04;;;;;;;14.10;9.33;;;1.40;99.90;;;;;;5071091;28;20230;-74
2023/01/26 12:04:35;;;;;;;19.33;9.40;;;1.40;99.90;;;;;;5067382;28;20239;-75
2023/01/26 12:07:07;;;;;;;16.20;8.47;;;1.40;99.90;;;;;;5062737;28;20207;-75
2023/01/26 12:09:44;;;;;;;15.33;7.93;;;1.40;99.90;;;;;;5061979;28;20221;-73
2023/01/26 12:12:25;;;;;;;15.30;7.73;;;1.40;99.90;;;;;;5062245;28;20213;-76
2023/01/26 12:15:17;;;;;;;15.33;7.97;;;1.40;99.90;;;;;;5063863;28;20543;-74
2023/01/26 12:17:59;;;;;;;12.90;7.70;;;1.40;99.90;;;;;;5048105;28;20182;-81
2023/01/26 12:23:17;;;;;;;13.93;8.20;;;1.60;99.90;;;;;;5085443;27;20522;-74
2023/01/26 12:26:00;;;;;;;12.53;7.00;;;1.50;99.90;;;;;;5078278;28;20220;-76
2023/01/26 12:28:40;;;;;;;13.50;7.83;;;1.50;99.90;;;;;;5078046;28;20788;-73
2023/01/26 12:31:22;;;;;;;10.47;7.53;;;1.50;99.90;;;;;;5079903;28;20665;-76
2023/01/26 12:33:52;;;;;;;13.73;7.10;;;1.40;99.90;;;;;;5084832;28;20218;-74
2023/01/26 12:36:45;;;;;;;14.00;8.47;;;1.50;99.90;;;;;;5082489;28;20229;-75
2023/01/26 12:39:35;;;;;;;13.17;7.10;;;1.50;99.90;;;;;;5082984;28;20219;-75
2023/01/26 12:42:37;;;;;;;13.70;7.23;;;1.50;99.90;;;;;;5080639;28;20206;-74
2023/01/26 12:45:07;;;;;;;9.70;6.63;;;1.50;99.90;;;;;;5083941;28;20193;-75
2023/01/26 12:47:37;;;;;;;11.07;6.73;;;1.50;99.90;;;;;;5082790;28;20253;-76
2023/01/26 12:50:23;;;;;;;13.67;6.83;;;1.50;99.90;;;;;;5082472;28;20202;-75
2023/01/26 12:52:54;;;;;;;12.67;7.10;;;1.30;99.90;;;;;;5080889;28;20232;-74
2023/01/26 12:55:48;;;;;;;10.90;6.27;;;1.20;99.90;;;;;;5071652;28;20215;-75
2023/01/26 12:58:18;;;;;;;11.77;7.00;;;1.30;99.90;;;;;;5096463;28;21020;-74
2023/01/26 13:01:02;;;;;;;11.57;6.57;;;1.40;99.90;;;;;;5073660;28;20229;-75
2023/01/26 13:03:37;;;;;;;10.63;5.80;;;1.50;99.90;;;;;;5076710;28;20726;-75
2023/01/26 13:06:08;;;;;;;10.70;5.97;;;1.50;99.90;;;;;;5070863;28;20249;-75
2023/01/26 13:08:34;;;;;;;11.37;6.37;;;1.50;99.90;;;;;;5074784;28;20175;-76
2023/01/26 13:11:09;;;;;;;10.67;5.97;;;1.50;99.90;;;;;;5070290;28;20214;-76
2023/01/26 13:13:55;;;;;;;11.77;6.53;;;1.40;99.90;;;;;;5073902;28;20201;-77
2023/01/26 13:16:24;;;;;;;10.20;5.90;;;1.40;99.90;;;;;;5077292;28;20651;-74
2023/01/26 13:18:50;;;;;;;10.43;6.17;;;1.40;99.90;;;;;;5071206;28;20286;-75
2023/01/26 13:21:40;;;;;;;10.77;6.73;;;1.40;99.90;;;;;;5077282;28;20315;-75
2023/01/26 13:24:15;;;;;;;12.63;7.07;;;1.40;99.90;;;;;;5074055;28;20634;-77
2023/01/26 13:26:44;;;;;;;9.50;5.97;;;1.50;99.90;;;;;;5074147;28;20197;-76
2023/01/26 13:29:28;;;;;;;12.53;6.97;;;1.50;99.90;;;;;;5085467;28;20220;-75
2023/01/26 13:31:55;;;;;;;11.23;6.40;;;1.60;99.90;;;;;;5077207;28;20214;-75
2023/01/26 13:34:36;;;;;;;9.60;6.00;;;1.50;99.90;;;;;;5063185;28;20234;-74
2023/01/26 13:37:31;;;;;;;11.10;7.17;;;1.50;99.90;;;;;;5060786;28;20244;-75
2023/01/26 13:40:04;;;;;;;10.80;6.93;;;1.50;99.90;;;;;;5066202;28;20268;-73
2023/01/26 13:42:49;;;;;;;10.97;6.13;;;1.60;99.90;;;;;;5072396;28;20227;-74
2023/01/26 13:45:22;;;;;;;10.47;6.80;;;1.50;99.90;;;;;;5060072;28;20223;-74
2023/01/26 13:47:51;;;;;;;12.33;7.50;;;1.50;99.90;;;;;;5061459;28;20189;-74